createdAt,value
2022-08-23T00:00:35.619Z,100007.56
2022-08-23T00:01:39.358Z,100015.69
2022-08-23T00:02:43.819Z,100013.19
2022-08-23T00:03:46.483Z,100016.31
2022-08-23T00:04:55.832Z,100015.06
2022-08-23T00:06:14.453Z,100019.47
2022-08-23T00:07:16.178Z,100021.06
2022-08-23T00:08:17.695Z,100014.88
2022-08-23T00:09:19.716Z,100011.13
2022-08-23T00:10:21.263Z,100015.16
2022-08-23T00:11:26.721Z,100012.31
2022-08-23T00:12:28.320Z,100016.75
2022-08-23T00:13:47.434Z,100010.22
2022-08-23T00:14:53.779Z,100018.31
2022-08-23T00:15:55.763Z,100008.09
2022-08-23T00:16:57.598Z,100014.97
2022-08-23T00:18:00.619Z,100012.88
2022-08-23T00:19:03.407Z,100016.94
2022-08-23T00:20:09.144Z,100011.22
2022-08-23T00:21:11.483Z,100012.44
2022-08-23T00:22:13.042Z,100019.34
2022-08-23T00:23:16.084Z,100018.88
2022-08-23T00:24:17.716Z,100020.09
2022-08-23T00:25:19.267Z,100020.47
2022-08-23T00:26:20.812Z,100017.94
2022-08-23T00:27:22.317Z,100019.16
2022-08-23T00:28:23.972Z,100020.34
2022-08-23T00:29:27.540Z,100018.69
2022-08-23T00:30:29.103Z,100016.22
2022-08-23T00:31:31.082Z,100017.78
2022-08-23T00:32:33.443Z,100013.66
2022-08-23T00:33:35.225Z,100022.56
2022-08-23T00:34:36.850Z,100018.03
2022-08-23T00:35:38.788Z,100026.13
2022-08-23T00:36:40.487Z,100024.00
2022-08-23T00:37:42.069Z,100019.50
2022-08-23T00:38:47.915Z,100032.13
2022-08-23T00:39:49.517Z,100020.25
2022-08-23T00:40:51.583Z,100023.84
2022-08-23T00:41:53.341Z,100022.16
2022-08-23T00:43:18.001Z,100014.81
2022-08-23T00:44:42.998Z,100028.59
2022-08-23T00:46:06.321Z,100019.16
2022-08-23T00:47:26.371Z,100023.56
2022-08-23T00:48:27.883Z,100022.28
2022-08-23T00:49:29.950Z,100025.13
2022-08-23T00:50:35.911Z,100021.78
2022-08-23T00:51:46.851Z,100016.00
2022-08-23T00:52:57.958Z,100019.22
2022-08-23T00:54:00.650Z,100019.59
2022-08-23T00:55:02.210Z,100016.28
2022-08-23T00:56:04.143Z,100022.38
2022-08-23T00:57:07.009Z,100019.03
2022-08-23T00:58:08.951Z,100025.09
2022-08-23T00:59:12.118Z,100021.41
2022-08-23T01:00:14.398Z,100030.72
2022-08-23T01:01:16.181Z,100023.72
2022-08-23T01:02:19.535Z,100026.94
2022-08-23T01:03:22.228Z,100025.16
2022-08-23T01:04:24.260Z,100030.03
2022-08-23T01:05:26.880Z,100030.78
2022-08-23T01:06:32.074Z,100036.38
2022-08-23T01:07:41.443Z,100036.28
2022-08-23T01:08:49.818Z,100028.41
2022-08-23T01:09:51.512Z,100034.50
2022-08-23T01:11:08.650Z,100030.81
2022-08-23T01:12:16.238Z,100036.06
2022-08-23T01:13:27.115Z,100033.56
2022-08-23T01:14:41.671Z,100038.44
2022-08-23T01:15:47.261Z,100036.78
2022-08-23T01:16:48.752Z,100032.63
2022-08-23T01:17:53.922Z,100048.88
2022-08-23T01:18:55.452Z,100046.41
2022-08-23T01:20:01.609Z,100050.09
2022-08-23T01:21:23.258Z,100056.97
2022-08-23T01:22:34.359Z,100052.84
2022-08-23T01:23:39.583Z,100046.69
2022-08-23T01:25:05.940Z,100049.53
2022-08-23T01:26:04.048Z,100046.22
2022-08-23T01:27:05.784Z,100044.56
2022-08-23T01:28:07.374Z,100048.59
2022-08-23T01:29:08.970Z,100047.78
2022-08-23T01:30:11.538Z,100045.25
2022-08-23T01:31:13.216Z,100050.13
2022-08-23T01:32:14.757Z,100048.47
2022-08-23T01:33:16.454Z,100043.97
2022-08-23T01:34:18.689Z,100044.34
2022-08-23T01:36:27.638Z,100050.03
2022-08-23T01:37:29.653Z,100038.19
2022-08-23T01:38:32.801Z,100035.31
2022-08-23T01:39:35.383Z,100036.53
2022-08-23T01:40:38.989Z,100036.88
2022-08-23T01:41:41.182Z,100038.91
2022-08-23T01:42:43.462Z,100036.06
2022-08-23T01:43:47.015Z,100041.28
2022-08-23T01:44:50.459Z,100040.47
2022-08-23T01:45:52.564Z,100042.47
2022-08-23T01:46:57.865Z,100051.38
2022-08-23T01:47:59.995Z,100045.66
2022-08-23T01:49:06.481Z,100052.91
2022-08-23T01:50:09.910Z,100045.94
2022-08-23T01:51:11.941Z,100057.31
2022-08-23T01:52:15.334Z,100060.53
2022-08-23T01:53:16.879Z,100060.91
2022-08-23T01:54:23.194Z,100059.25
2022-08-23T01:55:24.940Z,100066.47
2022-08-23T01:56:28.104Z,100063.16
2022-08-23T01:57:42.678Z,100060.69
2022-08-23T01:58:47.779Z,100057.34
2022-08-23T01:59:49.385Z,100058.56
2022-08-23T02:00:50.958Z,100057.25
2022-08-23T02:01:53.669Z,100057.13
2022-08-23T02:02:56.328Z,100048.13
2022-08-23T02:04:04.733Z,100051.69
2022-08-23T02:05:07.046Z,100053.25
2022-08-23T02:06:08.642Z,100043.38
2022-08-23T02:07:10.609Z,100053.13
2022-08-23T02:08:41.406Z,100050.97
2022-08-23T02:09:43.059Z,100055.00
2022-08-23T02:10:44.908Z,100054.53
2022-08-23T02:11:46.534Z,100052.88
2022-08-23T02:12:48.108Z,100058.09
2022-08-23T02:13:51.967Z,100059.66
2022-08-23T02:14:53.886Z,100062.50
2022-08-23T02:15:59.623Z,100070.53
2022-08-23T02:17:04.403Z,100057.84
2022-08-23T02:18:10.873Z,100069.25
2022-08-23T02:19:16.857Z,100061.91
2022-08-23T02:20:19.403Z,100065.09
2022-08-23T02:21:20.968Z,100063.09
2022-08-23T02:22:22.586Z,100062.63
2022-08-23T02:23:24.339Z,100058.94
2022-08-23T02:24:26.750Z,100065.81
2022-08-23T02:25:28.374Z,100062.03
2022-08-23T02:26:31.504Z,100068.06
2022-08-23T02:27:33.404Z,100060.72
2022-08-23T02:28:35.003Z,100063.44
2022-08-23T02:29:39.283Z,100056.09
2022-08-23T02:30:44.550Z,100059.31
2022-08-23T02:31:46.889Z,100060.50
2022-08-23T02:32:48.410Z,100063.69
2022-08-23T02:33:49.947Z,100063.56
2022-08-23T02:35:04.599Z,100060.25
2022-08-23T02:36:08.487Z,100059.41
2022-08-23T02:37:11.071Z,100059.41
2022-08-23T02:38:12.746Z,100057.41
2022-08-23T02:39:14.687Z,100052.91
2022-08-23T02:40:16.705Z,100063.44
2022-08-23T02:41:18.306Z,100061.44
2022-08-23T02:42:20.171Z,100062.25
2022-08-23T02:43:21.898Z,100061.44
2022-08-23T02:44:24.404Z,100057.75
2022-08-23T02:45:26.858Z,100071.97
2022-08-23T02:46:28.693Z,100071.50
2022-08-23T02:47:31.343Z,100067.00
2022-08-23T02:48:43.527Z,100063.34
2022-08-23T02:49:46.152Z,100067.38
2022-08-23T02:50:47.754Z,100066.91
2022-08-23T02:51:49.300Z,100070.91
2022-08-23T02:52:51.751Z,100077.78
2022-08-23T02:53:53.278Z,100080.16
2022-08-23T02:54:58.265Z,100080.16
2022-08-23T02:56:00.180Z,100076.13
2022-08-23T02:57:01.746Z,100083.34
2022-08-23T02:58:05.482Z,100076.84
2022-08-23T02:59:07.234Z,100075.19
2022-08-23T03:00:10.243Z,100070.56
2022-08-23T03:01:22.892Z,100075.75
2022-08-23T03:02:26.545Z,100074.44
2022-08-23T03:03:28.219Z,100074.81
2022-08-23T03:04:29.727Z,100079.16
2022-08-23T03:05:31.683Z,100082.00
2022-08-23T03:06:34.459Z,100082.00
2022-08-23T03:07:36.793Z,100076.31
2022-08-23T03:08:38.422Z,100084.38
2022-08-23T03:09:43.252Z,100082.72
2022-08-23T03:10:45.445Z,100082.25
2022-08-23T03:11:47.316Z,100079.41
2022-08-23T03:12:53.808Z,100080.56
2022-08-23T03:13:58.716Z,100083.41
2022-08-23T03:15:00.261Z,100077.25
2022-08-23T03:16:01.960Z,100067.50
2022-08-23T03:17:04.060Z,100075.09
2022-08-23T03:18:05.747Z,100079.13
2022-08-23T03:19:07.519Z,100083.16
2022-08-23T03:20:09.348Z,100080.69
2022-08-23T03:21:11.342Z,100083.03
2022-08-23T03:22:13.223Z,100076.53
2022-08-23T03:23:14.738Z,100084.56
2022-08-23T03:24:16.294Z,100077.22
2022-08-23T03:25:18.122Z,100087.75
2022-08-23T03:26:44.522Z,100083.25
2022-08-23T03:27:46.928Z,100084.44
2022-08-23T03:28:48.655Z,100082.78
2022-08-23T03:29:50.987Z,100090.84
2022-08-23T03:30:52.918Z,100082.66
2022-08-23T03:31:54.548Z,100085.84
2022-08-23T03:32:56.426Z,100080.84
2022-08-23T03:33:58.627Z,100086.88
2022-08-23T03:35:00.288Z,100092.56
2022-08-23T03:36:02.428Z,100080.72
2022-08-23T03:37:04.975Z,100083.44
2022-08-23T03:38:06.995Z,100074.66
2022-08-23T03:39:11.118Z,100084.63
2022-08-23T03:40:12.958Z,100089.50
2022-08-23T03:41:14.738Z,100090.31
2022-08-23T03:42:16.430Z,100087.00
2022-08-23T03:43:21.009Z,100090.19
2022-08-23T03:44:22.647Z,100092.53
2022-08-23T03:45:25.185Z,100093.72
2022-08-23T03:46:29.057Z,100092.06
2022-08-23T03:47:35.210Z,100096.06
2022-08-23T03:48:37.564Z,100098.91
2022-08-23T03:49:39.300Z,100099.28
2022-08-23T03:50:40.841Z,100100.47
2022-08-23T03:51:42.478Z,100098.78
2022-08-23T03:52:44.502Z,100106.50
2022-08-23T03:53:47.821Z,100111.34
2022-08-23T03:54:49.363Z,100102.00
2022-08-23T03:55:51.804Z,100107.66
2022-08-23T03:56:59.726Z,100106.00
2022-08-23T03:58:03.328Z,100110.03
2022-08-23T03:59:06.151Z,100106.00
2022-08-23T04:00:08.361Z,100105.84
2022-08-23T04:01:15.663Z,100108.22
2022-08-23T04:02:17.723Z,100110.22
2022-08-23T04:03:19.387Z,100123.59
2022-08-23T04:04:35.568Z,100122.78
2022-08-23T04:05:57.403Z,100118.28
2022-08-23T04:06:59.083Z,100113.78
2022-08-23T04:08:06.184Z,100123.47
2022-08-23T04:09:07.761Z,100118.97
2022-08-23T04:10:09.646Z,100119.69
2022-08-23T04:11:13.356Z,100111.84
2022-08-23T04:12:24.326Z,100119.84
2022-08-23T04:13:28.632Z,100118.19
2022-08-23T04:14:30.405Z,100122.19
2022-08-23T04:15:31.992Z,100129.53
2022-08-23T04:16:37.484Z,100116.53
2022-08-23T04:17:40.593Z,100129.91
2022-08-23T04:18:42.305Z,100127.88
2022-08-23T04:19:43.877Z,100133.56
2022-08-23T04:20:46.895Z,100127.06
2022-08-23T04:21:49.959Z,100129.06
2022-08-23T04:22:52.285Z,100131.91
2022-08-23T04:23:54.583Z,100122.06
2022-08-23T04:24:56.177Z,100122.44
2022-08-23T04:25:58.070Z,100125.94
2022-08-23T04:27:00.472Z,100129.47
2022-08-23T04:28:02.931Z,100125.31
2022-08-23T04:29:04.938Z,100134.53
2022-08-23T04:30:07.256Z,100133.72
2022-08-23T04:31:10.225Z,100136.03
2022-08-23T04:32:14.769Z,100132.06
2022-08-23T04:33:31.795Z,100131.19
2022-08-23T04:34:34.319Z,100141.72
2022-08-23T04:35:35.839Z,100134.38
2022-08-23T04:36:39.161Z,100142.88
2022-08-23T04:37:41.513Z,100144.56
2022-08-23T04:38:43.370Z,100141.72
2022-08-23T04:40:05.769Z,100140.88
2022-08-23T04:41:32.640Z,100143.59
2022-08-23T04:42:34.570Z,100152.66
2022-08-23T04:43:36.234Z,100153.50
2022-08-23T04:44:37.811Z,100149.00
2022-08-23T04:45:40.614Z,100147.31
2022-08-23T04:46:48.652Z,100151.84
2022-08-23T04:47:51.455Z,100153.50
2022-08-23T04:48:54.086Z,100152.66
2022-08-23T04:49:55.695Z,100159.19
2022-08-23T04:50:57.347Z,100151.84
2022-08-23T04:51:58.896Z,100152.66
2022-08-23T04:53:00.961Z,100153.50
2022-08-23T04:54:04.098Z,100149.00
2022-08-23T04:55:36.490Z,100150.16
2022-08-23T04:56:42.127Z,100149.00
2022-08-23T04:57:45.783Z,100145.16
2022-08-23T04:58:51.838Z,100156.53
2022-08-23T04:59:53.739Z,100160.53
2022-08-23T05:00:59.001Z,100161.22
2022-08-23T05:02:02.282Z,100170.91
2022-08-23T05:03:03.968Z,100165.25
2022-08-23T05:04:05.527Z,100168.44
2022-08-23T05:05:09.362Z,100172.59
2022-08-23T05:06:16.829Z,100167.75
2022-08-23T05:07:18.530Z,100178.25
2022-08-23T05:08:20.378Z,100172.59
2022-08-23T05:09:24.095Z,100173.41
2022-08-23T05:10:26.030Z,100176.59
2022-08-23T05:11:29.227Z,100170.91
2022-08-23T05:12:31.151Z,100174.59
2022-08-23T05:13:34.783Z,100175.41
2022-08-23T05:14:38.120Z,100171.75
2022-08-23T05:15:40.673Z,100174.25
2022-08-23T05:16:42.278Z,100178.25
2022-08-23T05:17:44.963Z,100175.06
2022-08-23T05:18:46.651Z,100190.09
2022-08-23T05:19:48.388Z,100183.25
2022-08-23T05:20:50.376Z,100185.72
2022-08-23T05:21:56.374Z,100192.25
2022-08-23T05:23:03.673Z,100184.41
2022-08-23T05:24:07.614Z,100180.88
2022-08-23T05:25:15.407Z,100185.72
2022-08-23T05:26:17.327Z,100187.41
2022-08-23T05:27:19.444Z,100189.06
2022-08-23T05:28:21.946Z,100183.38
2022-08-23T05:29:23.551Z,100190.75
2022-08-23T05:30:26.188Z,100189.88
2022-08-23T05:31:29.435Z,100193.25
2022-08-23T05:32:36.843Z,100194.91
2022-08-23T05:33:39.483Z,100199.41
2022-08-23T05:34:41.180Z,100196.22
2022-08-23T05:35:45.276Z,100197.06
2022-08-23T05:36:48.143Z,100201.56
2022-08-23T05:37:59.753Z,100206.88
2022-08-23T05:39:01.411Z,100203.69
2022-08-23T05:40:06.746Z,100194.34
2022-08-23T05:41:15.975Z,100209.03
2022-08-23T05:42:22.586Z,100205.88
2022-08-23T05:43:28.935Z,100201.03
2022-08-23T05:44:31.941Z,100201.84
2022-08-23T05:45:39.138Z,100210.84
2022-08-23T05:46:41.796Z,100212.50
2022-08-23T05:48:07.609Z,100209.31
2022-08-23T05:49:21.373Z,100213.47
2022-08-23T05:50:23.870Z,100213.97
2022-08-23T05:51:27.909Z,100214.78
2022-08-23T05:52:29.455Z,100216.13
2022-08-23T05:53:31.368Z,100215.44
2022-08-23T05:54:33.194Z,100221.59
2022-08-23T05:55:54.977Z,100223.78
2022-08-23T05:56:59.353Z,100220.25
2022-08-23T05:58:01.084Z,100230.09
2022-08-23T05:59:05.003Z,100226.91
2022-08-23T06:00:08.587Z,100220.88
2022-08-23T06:01:20.407Z,100222.69
2022-08-23T06:02:22.179Z,100228.53
2022-08-23T06:03:23.747Z,100221.31
2022-08-23T06:04:26.842Z,100222.28
2022-08-23T06:05:29.361Z,100229.75
2022-08-23T06:06:36.914Z,100229.09
2022-08-23T06:07:39.519Z,100233.22
2022-08-23T06:08:41.315Z,100230.88
2022-08-23T06:09:43.038Z,100233.38
2022-08-23T06:10:45.588Z,100226.97
2022-08-23T06:11:58.753Z,100236.84
2022-08-23T06:13:01.682Z,100231.16
2022-08-23T06:14:04.343Z,100234.97
2022-08-23T06:15:06.179Z,100228.09
2022-08-23T06:16:14.372Z,100234.63
2022-08-23T06:17:18.086Z,100234.75
2022-08-23T06:18:20.939Z,100235.22
2022-08-23T06:19:23.866Z,100239.75
2022-08-23T06:20:43.974Z,100238.56
2022-08-23T06:21:52.275Z,100241.06
2022-08-23T06:22:58.998Z,100240.72
2022-08-23T06:24:00.874Z,100245.22
2022-08-23T06:25:04.353Z,100235.50
2022-08-23T06:26:26.048Z,100244.84
2022-08-23T06:27:28.612Z,100238.34
2022-08-23T06:28:30.451Z,100240.47
2022-08-23T06:29:32.260Z,100241.31
2022-08-23T06:30:56.191Z,100236.94
2022-08-23T06:32:09.624Z,100239.44
2022-08-23T06:33:18.409Z,100244.09
2022-08-23T06:34:52.287Z,100247.09
2022-08-23T06:36:32.630Z,100244.72
2022-08-23T06:37:47.837Z,100247.25
2022-08-23T06:39:09.111Z,100238.34
2022-08-23T06:40:29.284Z,100244.50
2022-08-23T06:41:49.382Z,100241.31
2022-08-23T06:43:01.603Z,100243.94
2022-08-23T06:44:21.737Z,100246.94
2022-08-23T06:45:34.832Z,100245.38
2022-08-23T06:46:38.459Z,100245.50
2022-08-23T06:47:40.272Z,100248.84
2022-08-23T06:48:42.446Z,100244.81
2022-08-23T06:49:51.076Z,100240.09
2022-08-23T06:51:27.327Z,100247.56
2022-08-23T06:52:49.701Z,100237.84
2022-08-23T06:54:06.567Z,100245.31
2022-08-23T06:55:23.280Z,100243.81
2022-08-23T06:56:35.465Z,100247.47
2022-08-23T06:57:43.688Z,100249.97
2022-08-23T06:59:13.719Z,100237.16
2022-08-23T07:00:34.275Z,100251.19
2022-08-23T07:01:52.677Z,100255.44
2022-08-23T07:03:14.179Z,100249.88
2022-08-23T07:04:35.734Z,100252.84
2022-08-23T07:06:03.674Z,100244.47
2022-08-23T07:07:11.393Z,100256.69
2022-08-23T07:08:13.524Z,100258.69
2022-08-23T07:09:15.535Z,100249.78
2022-08-23T07:10:17.501Z,100255.97
2022-08-23T07:11:19.628Z,100258.44
2022-08-23T07:12:22.096Z,100255.97
2022-08-23T07:13:23.763Z,100258.94
2022-08-23T07:14:25.401Z,100261.31
2022-08-23T07:15:27.016Z,100256.56
2022-08-23T07:16:34.949Z,100257.53
2022-08-23T07:17:36.578Z,100267.38
2022-08-23T07:18:38.546Z,100255.25
2022-08-23T07:19:41.415Z,100253.38
2022-08-23T07:20:42.928Z,100253.97
2022-08-23T07:21:45.895Z,100262.28
2022-08-23T07:22:49.323Z,100252.66
2022-08-23T07:23:51.560Z,100250.16
2022-08-23T07:24:53.569Z,100253.75
2022-08-23T07:25:57.558Z,100254.22
2022-08-23T07:27:06.184Z,100245.78
2022-08-23T07:28:11.702Z,100258.09
2022-08-23T07:29:14.340Z,100260.25
2022-08-23T07:30:15.903Z,100258.34
2022-08-23T07:31:22.783Z,100252.28
2022-08-23T07:32:24.347Z,100259.75
2022-08-23T07:33:29.226Z,100251.81
2022-08-23T07:34:42.176Z,100252.63
2022-08-23T07:35:46.626Z,100259.16
2022-08-23T07:36:48.347Z,100254.75
2022-08-23T07:37:49.852Z,100259.06
2022-08-23T07:38:51.902Z,100253.94
2022-08-23T07:39:56.311Z,100249.53
2022-08-23T07:41:00.478Z,100251.69
2022-08-23T07:42:02.279Z,100254.66
2022-08-23T07:43:24.083Z,100259.63
2022-08-23T07:44:27.218Z,100260.44
2022-08-23T07:45:29.092Z,100258.88
2022-08-23T07:46:34.483Z,100256.16
2022-08-23T07:47:37.003Z,100261.16
2022-08-23T07:48:53.601Z,100259.59
2022-08-23T07:50:02.687Z,100271.91
2022-08-23T07:51:07.931Z,100263.25
2022-08-23T07:52:12.078Z,100262.06
2022-08-23T07:53:14.014Z,100263.00
2022-08-23T07:54:18.170Z,100270.97
2022-08-23T07:55:26.598Z,100265.34
2022-08-23T07:56:29.086Z,100258.09
2022-08-23T07:57:39.236Z,100267.59
2022-08-23T07:59:06.918Z,100266.50
2022-08-23T08:00:22.557Z,100255.09
2022-08-23T08:01:35.272Z,100239.69
2022-08-23T08:02:36.932Z,100262.91
2022-08-23T08:03:39.548Z,100262.69
2022-08-23T08:04:46.911Z,100269.06
2022-08-23T08:05:48.809Z,100272.13
2022-08-23T08:07:10.498Z,100264.97
2022-08-23T08:08:16.787Z,100267.84
2022-08-23T08:09:20.233Z,100272.34
2022-08-23T08:10:22.327Z,100261.38
2022-08-23T08:11:25.475Z,100264.59
2022-08-23T08:12:28.720Z,100268.47
2022-08-23T08:13:35.579Z,100273.19
2022-08-23T08:14:37.421Z,100267.22
2022-08-23T08:15:40.379Z,100273.50
2022-08-23T08:16:45.668Z,100266.22
2022-08-23T08:17:53.337Z,100271.19
2022-08-23T08:18:55.283Z,100274.63
2022-08-23T08:20:15.447Z,100268.28
2022-08-23T08:21:35.626Z,100275.03
2022-08-23T08:22:48.533Z,100271.97
2022-08-23T08:23:58.677Z,100276.28
2022-08-23T08:25:15.671Z,100268.75
2022-08-23T08:26:17.511Z,100283.84
2022-08-23T08:27:27.125Z,100287.09
2022-08-23T08:28:29.461Z,100272.88
2022-08-23T08:29:31.394Z,100268.91
2022-08-23T08:30:32.921Z,100276.56
2022-08-23T08:31:38.340Z,100274.16
2022-08-23T08:32:46.961Z,100280.81
2022-08-23T08:33:48.960Z,100279.25
2022-08-23T08:34:50.842Z,100278.13
2022-08-23T08:35:57.870Z,100275.44
2022-08-23T08:37:02.770Z,100273.22
2022-08-23T08:38:05.610Z,100278.09
2022-08-23T08:39:08.167Z,100278.28
2022-08-23T08:40:12.382Z,100274.75
2022-08-23T08:41:16.449Z,100283.44
2022-08-23T08:42:18.151Z,100279.28
2022-08-23T08:43:27.300Z,100274.94
2022-08-23T08:44:41.014Z,100269.38
2022-08-23T08:45:58.862Z,100275.63
2022-08-23T08:47:03.419Z,100283.53
2022-08-23T08:48:13.499Z,100281.59
2022-08-23T08:49:31.970Z,100287.69
2022-08-23T08:50:36.731Z,100284.13
2022-08-23T08:51:39.116Z,100280.25
2022-08-23T08:52:45.251Z,100276.34
2022-08-23T08:53:55.454Z,100283.50
2022-08-23T08:55:26.736Z,100279.19
2022-08-23T08:56:32.691Z,100279.34
2022-08-23T08:58:04.494Z,100281.91
2022-08-23T08:59:07.178Z,100286.09
2022-08-23T09:00:14.616Z,100289.44
2022-08-23T09:01:19.102Z,100274.19
2022-08-23T09:02:32.850Z,100281.41
2022-08-23T09:03:37.992Z,100277.13
2022-08-23T09:04:45.635Z,100273.06
2022-08-23T09:06:07.493Z,100285.41
2022-08-23T09:07:27.939Z,100283.44
2022-08-23T09:08:52.126Z,100288.34
2022-08-23T09:09:56.697Z,100286.75
2022-08-23T09:11:06.558Z,100285.69
2022-08-23T09:12:25.542Z,100282.88
2022-08-23T09:13:27.597Z,100271.06
2022-08-23T09:14:38.550Z,100288.78
2022-08-23T09:15:41.027Z,100283.81
2022-08-23T09:16:55.303Z,100277.72
2022-08-23T09:17:58.590Z,100281.50
2022-08-23T09:19:01.184Z,100279.47
2022-08-23T09:20:04.152Z,100276.69
2022-08-23T09:21:06.818Z,100279.66
2022-08-23T09:22:13.370Z,100277.38
2022-08-23T09:23:19.849Z,100276.75
2022-08-23T09:24:24.336Z,100272.34
2022-08-23T09:25:33.792Z,100276.66
2022-08-23T09:26:41.224Z,100270.16
2022-08-23T09:27:43.603Z,100272.94
2022-08-23T09:28:45.877Z,100268.03
2022-08-23T09:29:57.609Z,100275.81
2022-08-23T09:30:59.608Z,100276.66
2022-08-23T09:32:02.659Z,100276.00
2022-08-23T09:33:20.559Z,100280.94
2022-08-23T09:34:23.316Z,100279.28
2022-08-23T09:35:37.770Z,100271.97
2022-08-23T09:36:41.524Z,100272.88
2022-08-23T09:37:52.105Z,100278.22
2022-08-23T09:39:17.028Z,100272.19
2022-08-23T09:40:20.391Z,100271.41
2022-08-23T09:41:25.750Z,100272.28
2022-08-23T09:42:29.734Z,100272.34
2022-08-23T09:43:31.618Z,100277.72
2022-08-23T09:44:40.411Z,100271.63
2022-08-23T09:45:47.334Z,100269.25
2022-08-23T09:46:48.859Z,100272.13
2022-08-23T09:47:54.264Z,100266.84
2022-08-23T09:48:59.033Z,100270.16
2022-08-23T09:50:26.187Z,100264.88
2022-08-23T09:51:37.708Z,100262.84
2022-08-23T09:52:43.129Z,100269.88
2022-08-23T09:53:46.073Z,100260.88
2022-08-23T09:54:57.452Z,100267.09
2022-08-23T09:55:59.178Z,100265.88
2022-08-23T09:57:05.117Z,100261.84
2022-08-23T09:58:07.569Z,100254.13
2022-08-23T09:59:27.560Z,100258.25
2022-08-23T10:00:36.700Z,100258.28
2022-08-23T10:01:39.516Z,100253.44
2022-08-23T10:02:47.612Z,100262.47
2022-08-23T10:04:08.627Z,100259.66
2022-08-23T10:05:20.006Z,100261.34
2022-08-23T10:06:31.036Z,100262.16
2022-08-23T10:07:35.375Z,100258.06
2022-08-23T10:08:42.999Z,100260.94
2022-08-23T10:09:45.677Z,100254.38
2022-08-23T10:10:50.809Z,100257.78
2022-08-23T10:11:57.403Z,100256.66
2022-08-23T10:12:59.153Z,100262.03
2022-08-23T10:14:01.844Z,100260.78
2022-08-23T10:15:04.233Z,100260.41
2022-08-23T10:16:29.202Z,100249.75
2022-08-23T10:17:41.664Z,100248.66
2022-08-23T10:18:55.329Z,100251.59
2022-08-23T10:20:05.963Z,100249.19
2022-08-23T10:21:07.629Z,100240.22
2022-08-23T10:22:28.498Z,100247.72
2022-08-23T10:23:48.251Z,100237.50
2022-08-23T10:24:53.005Z,100233.44
2022-08-23T10:25:55.355Z,100237.94
2022-08-23T10:27:34.038Z,100232.22
2022-08-23T10:28:54.477Z,100255.25
2022-08-23T10:30:01.282Z,100238.00
2022-08-23T10:31:11.589Z,100236.78
2022-08-23T10:32:33.076Z,100243.06
2022-08-23T10:33:38.951Z,100244.72
2022-08-23T10:34:50.745Z,100244.31
2022-08-23T10:35:58.628Z,100242.66
2022-08-23T10:37:12.991Z,100241.03
2022-08-23T10:38:17.605Z,100243.94
2022-08-23T10:39:24.705Z,100247.22
2022-08-23T10:40:30.521Z,100241.44
2022-08-23T10:41:38.784Z,100238.59
2022-08-23T10:42:43.473Z,100239.84
2022-08-23T10:43:53.080Z,100230.78
2022-08-23T10:44:58.833Z,100233.28
2022-08-23T10:46:00.872Z,100232.44
2022-08-23T10:47:18.146Z,100236.97
2022-08-23T10:48:28.230Z,100239.84
2022-08-23T10:49:30.341Z,100229.97
2022-08-23T10:50:55.482Z,100223.44
2022-08-23T10:51:59.259Z,100226.72
2022-08-23T10:53:02.551Z,100233.31
2022-08-23T10:54:07.963Z,100236.59
2022-08-23T10:55:24.447Z,100229.19
2022-08-23T10:56:26.865Z,100228.38
2022-08-23T10:57:33.394Z,100226.72
2022-08-23T10:58:47.381Z,100225.91
2022-08-23T10:59:49.485Z,100220.94
2022-08-23T11:00:52.278Z,100224.63
2022-08-23T11:01:59.042Z,100217.19
2022-08-23T11:03:01.637Z,100222.53
2022-08-23T11:04:15.035Z,100224.19
2022-08-23T11:05:38.713Z,100222.50
2022-08-23T11:06:48.274Z,100218.41
2022-08-23T11:07:56.953Z,100209.31
2022-08-23T11:09:02.528Z,100213.38
2022-08-23T11:10:04.010Z,100213.81
2022-08-23T11:11:06.976Z,100216.63
2022-08-23T11:12:19.724Z,100212.91
2022-08-23T11:13:22.768Z,100214.94
2022-08-23T11:14:36.602Z,100213.69
2022-08-23T11:15:41.382Z,100208.25
2022-08-23T11:16:47.154Z,100212.75
2022-08-23T11:17:57.845Z,100215.63
2022-08-23T11:19:00.838Z,100215.59
2022-08-23T11:20:10.616Z,100208.94
2022-08-23T11:21:18.936Z,100199.03
2022-08-23T11:22:30.167Z,100193.72
2022-08-23T11:23:36.106Z,100200.66
2022-08-23T11:24:48.986Z,100207.69
2022-08-23T11:25:50.635Z,100204.88
2022-08-23T11:26:52.504Z,100203.69
2022-08-23T11:28:12.399Z,100204.50
2022-08-23T11:29:23.385Z,100193.03
2022-08-23T11:30:35.534Z,100199.63
2022-08-23T11:31:41.110Z,100189.31
2022-08-23T11:32:43.086Z,100193.44
2022-08-23T11:33:46.839Z,100192.63
2022-08-23T11:34:49.823Z,100191.41
2022-08-23T11:36:09.887Z,100195.53
2022-08-23T11:37:18.854Z,100186.84
2022-08-23T11:38:40.328Z,100190.16
2022-08-23T11:40:00.057Z,100190.22
2022-08-23T11:41:19.707Z,100195.22
2022-08-23T11:42:21.547Z,100198.56
2022-08-23T11:43:31.627Z,100195.69
2022-08-23T11:44:40.490Z,100195.31
2022-08-23T11:45:46.274Z,100196.13
2022-08-23T11:46:49.248Z,100189.91
2022-08-23T11:48:03.390Z,100192.78
2022-08-23T11:49:23.596Z,100193.63
2022-08-23T11:50:26.193Z,100195.25
2022-08-23T11:51:37.279Z,100192.78
2022-08-23T11:52:49.838Z,100193.59
2022-08-23T11:53:51.312Z,100195.22
2022-08-23T11:55:05.220Z,100191.50
2022-08-23T11:56:09.655Z,100189.47
2022-08-23T11:57:11.151Z,100191.13
2022-08-23T11:58:18.988Z,100182.47
2022-08-23T11:59:34.885Z,100186.16
2022-08-23T12:00:57.539Z,100185.72
2022-08-23T12:01:59.396Z,100190.63
2022-08-23T12:03:05.163Z,100177.84
2022-08-23T12:04:12.302Z,100183.63
2022-08-23T12:05:22.796Z,100179.03
2022-08-23T12:06:27.337Z,100183.56
2022-08-23T12:07:42.800Z,100175.69
2022-08-23T12:08:44.303Z,100176.13
2022-08-23T12:09:49.882Z,100175.69
2022-08-23T12:10:51.373Z,100177.31
2022-08-23T12:11:52.863Z,100162.91
2022-08-23T12:13:14.330Z,100168.66
2022-08-23T12:14:31.152Z,100169.09
2022-08-23T12:15:56.417Z,100179.41
2022-08-23T12:17:03.210Z,100172.81
2022-08-23T12:18:07.218Z,100169.50
2022-08-23T12:19:10.913Z,100183.53
2022-08-23T12:20:20.475Z,100173.25
2022-08-23T12:21:23.101Z,100169.50
2022-08-23T12:22:25.757Z,100173.22
2022-08-23T12:23:27.419Z,100165.75
2022-08-23T12:24:30.776Z,100175.25
2022-08-23T12:25:32.367Z,100170.28
2022-08-23T12:26:49.583Z,100168.22
2022-08-23T12:28:11.748Z,100171.94
2022-08-23T12:29:23.247Z,100172.75
2022-08-23T12:30:25.808Z,100176.91
2022-08-23T12:31:35.514Z,100175.25
2022-08-23T12:32:40.091Z,100172.38
2022-08-23T12:33:47.846Z,100173.63
2022-08-23T12:34:51.937Z,100182.25
2022-08-23T12:36:03.818Z,100171.50
2022-08-23T12:37:15.680Z,100180.19
2022-08-23T12:38:17.141Z,100170.22
2022-08-23T12:39:32.070Z,100166.91
2022-08-23T12:40:36.299Z,100168.16